Latest METARs, TAFs and NOTAMs for SKCG


---------------------------------------------------------------------------
	(OBSERVATIONS)
SKCG 181000Z VRB02KT 8000 FEW012 26/26 A2972 RMK HZ=
SKCG 180900Z 04003KT 350V090 8000 FEW012 27/26 A2972 RMK HZ=
SKCG 180800Z 04005KT 010V080 9999 FEW012 27/26 A2972=
---------------------------------------------------------------------------
	(TERMINAL AREA FORECAST)
SKCG 180500Z 1806/1906 VRB02KT 9999 FEW017
    BECMG 1814/1816 01012KT
    PROB40 TEMPO 1820/1822 6000 TS SCT017CB
    TX34/1818Z TN25/1811Z=
---------------------------------------------------------------------------
	(NOTAMS)


SKCG A1943/18 RWY 01/19 CLSD. FM SEP 12 TIL SEP 30 BTN 0615-1015
    FM OCT 01 TIL OCT 27 BTN 0615-1015 NOV 14,15,16,17 BTN 0615-1015
    DEC 17,18,19,20 BTN 0610-1015, 12 SEP 06:15 2018 UNTIL 20
    DEC 10:15 2018. CREATED: 11 SEP 12:52 2018

SKCG A2046/18 MID TRANSMISSOMETER RWY 01 U/S. H24, 28 SEP 14:45
    2018 UNTIL 28 DEC 23:59 2018 ESTIMATED. CREATED: 28 SEP 14:49
    2018

SKCG A2216/18 DECLARED DIST RWY 01/19 CHG: RWY TORA?M? TODA?M?
    ASDA?M? LDA?M? 01 2420 2540 2420 2390 19 2390 2420 2390 2390.
    19 OCT 15:40 2018 UNTIL 10 JAN 23:59 2019. CREATED: 19 OCT
    15:43 2018

SKCG A2256/18 FIREFIGHTING AND RESCUE CHG TO CAT 8. TUE,THU,SAT,SUN
    BTN 2130-2359 WED,FRI,SUN,MON BTN 0000-0030, 28 OCT 21:30
    2018 UNTIL 05 DEC 00:30 2018. CREATED: 24 OCT 22:50 2018

SKCG A2336/18 FIREFIGHTING AND RESCUE SER CHG TO CAT 8 REF. AIP
    SKCG AD2.6. MON,FRI BTN 0000-0030 TUE,SAT BTN 2130-2359 WED,THU,SUN
    0000-0030 Y 2130-2359, 05 DEC 21:30 2018 UNTIL PERM. CREATED:
    01 NOV 11:45 2018

SKCG A2405/18 AD LTD, NO AVBL FOR TRG REF AD 2 SKCG. DLY BTN
    1600-1900, 10 NOV 16:00 2018 UNTIL PERM. CREATED: 09 NOV
    23:00 2018

SKCG A2498/18 RWY 01/19 CLSD. NOV 16-17 BTN 0615-1015 NOV 18-30
    BTN 0615-0915 DEC 01-16 BTN 0615-0915 DEC 17-20 BTN 0610-1015,
    17 NOV 06:15 2018 UNTIL 20 DEC 10:15 2018. CREATED: 17 NOV
    20:43 2018

SKCG A2997/09 FIRE FIGHTING AND RESCUE DOWNGRADED TO CAT 7 09
    DEC 20:30 UNTIL 10 DEC 23:00 ESTIMATED

---------------------------------------------------------------------------